Time;durP1;ratioP1;P1;durP2;ratioP2;P2;SDS_P1;SDS_P2;PMS_P1;PMS_P2;Temp;Humidity;BMP_temperature;BMP_pressure;BME280_temperature;BME280_humidity;BME280_pressure;Samples;Min_cycle;Max_cycle;Signal;HPM_P1;HPM_P2
2021/08/21 00:01:06;;;;;;;5.80;5.30;;;23.20;35.90;;;;;;5032271;28;20183;-67
2021/08/21 00:03:32;;;;;;;5.03;4.63;;;23.20;35.90;;;;;;5032383;28;20173;-65
2021/08/21 00:05:58;;;;;;;5.30;4.80;;;23.20;35.90;;;;;;5031971;28;20426;-65
2021/08/21 00:08:23;;;;;;;5.67;5.27;;;23.20;35.90;;;;;;5032055;28;20208;-66
2021/08/21 00:10:49;;;;;;;5.93;5.43;;;23.20;35.90;;;;;;5032133;28;20593;-64
2021/08/21 00:13:15;;;;;;;5.73;5.23;;;23.20;35.90;;;;;;5032041;28;20173;-64
2021/08/21 00:15:40;;;;;;;5.63;5.23;;;23.20;35.90;;;;;;5032065;28;20412;-65
2021/08/21 00:18:06;;;;;;;5.60;5.10;;;23.20;35.80;;;;;;5032219;28;20283;-66
2021/08/21 00:20:32;;;;;;;5.60;5.20;;;23.20;35.90;;;;;;5031969;28;20173;-65
2021/08/21 00:22:57;;;;;;;5.40;5.00;;;23.20;35.90;;;;;;5032222;28;20184;-64
2021/08/21 00:25:23;;;;;;;5.03;4.63;;;23.20;35.90;;;;;;5031728;28;20172;-65
2021/08/21 00:27:48;;;;;;;5.57;5.07;;;23.20;35.90;;;;;;5031906;28;20204;-66
2021/08/21 00:30:14;;;;;;;6.67;5.10;;;23.20;35.90;;;;;;5031932;28;20168;-65
2021/08/21 00:32:40;;;;;;;4.90;4.50;;;23.20;35.90;;;;;;5031985;28;20310;-64
2021/08/21 00:35:07;;;;;;;5.03;4.73;;;23.20;35.90;;;;;;5031363;28;20203;-65
2021/08/21 00:37:32;;;;;;;5.60;5.20;;;23.20;35.90;;;;;;5031240;28;20626;-68
2021/08/21 00:39:58;;;;;;;5.87;5.47;;;23.20;35.90;;;;;;5031711;28;20423;-64
2021/08/21 00:42:24;;;;;;;5.37;5.00;;;23.20;35.90;;;;;;5031765;28;20262;-65
2021/08/21 00:44:49;;;;;;;5.07;4.67;;;23.20;36.00;;;;;;5031387;28;20173;-64
2021/08/21 00:47:17;;;;;;;5.10;4.70;;;23.20;36.00;;;;;;5031667;28;20209;-66
2021/08/21 00:49:45;;;;;;;5.70;5.00;;;23.20;36.00;;;;;;5031601;28;20176;-64
2021/08/21 00:52:14;;;;;;;5.90;5.30;;;23.20;36.00;;;;;;5031713;28;20404;-68
2021/08/21 00:54:40;;;;;;;5.57;5.07;;;23.20;36.00;;;;;;5031469;28;20814;-67
2021/08/21 00:57:06;;;;;;;5.30;5.00;;;23.20;36.00;;;;;;5031355;28;20482;-65
2021/08/21 00:59:37;;;;;;;5.00;4.60;;;23.20;36.00;;;;;;5031626;28;20227;-65
2021/08/21 01:02:03;;;;;;;5.40;5.00;;;23.20;36.00;;;;;;5031622;28;20407;-65
2021/08/21 01:04:34;;;;;;;6.00;5.50;;;23.20;36.00;;;;;;5031551;28;20411;-64
2021/08/21 01:07:08;;;;;;;6.07;5.67;;;23.20;36.00;;;;;;5031280;28;20474;-65
2021/08/21 01:09:36;;;;;;;5.20;4.80;;;23.10;36.00;;;;;;5031458;28;20478;-68
2021/08/21 01:12:04;;;;;;;6.00;5.50;;;23.20;36.00;;;;;;5031453;28;20494;-65
2021/08/21 01:14:32;;;;;;;5.60;5.10;;;23.20;36.00;;;;;;5031581;28;20407;-65
2021/08/21 01:16:57;;;;;;;5.60;5.03;;;23.20;36.10;;;;;;5031176;28;20418;-64
2021/08/21 01:19:24;;;;;;;4.97;4.57;;;23.10;36.00;;;;;;5031377;28;20415;-63
2021/08/21 01:21:50;;;;;;;6.10;5.60;;;23.20;36.00;;;;;;5031328;28;20550;-67
2021/08/21 01:24:16;;;;;;;5.40;5.10;;;23.20;36.00;;;;;;5031334;28;20415;-67
2021/08/21 01:26:56;;;;;;;5.90;5.30;;;23.10;36.00;;;;;;5031063;28;20462;-64
2021/08/21 01:29:22;;;;;;;6.27;5.50;;;23.10;36.00;;;;;;5031336;28;20187;-64
2021/08/21 01:31:49;;;;;;;8.07;5.60;;;23.10;36.10;;;;;;5031384;28;21158;-64
2021/08/21 01:34:15;;;;;;;5.90;5.40;;;23.10;36.10;;;;;;5031262;28;20407;-64
2021/08/21 01:36:43;;;;;;;5.00;4.60;;;23.10;36.10;;;;;;5030955;28;20783;-65
2021/08/21 01:39:09;;;;;;;5.80;5.30;;;23.10;36.10;;;;;;5031465;28;20181;-65
2021/08/21 01:41:34;;;;;;;5.80;5.30;;;23.20;36.20;;;;;;5031114;28;20488;-67
2021/08/21 01:44:00;;;;;;;5.93;5.33;;;23.10;36.10;;;;;;5031389;28;20183;-64
2021/08/21 01:46:25;;;;;;;5.07;4.67;;;23.10;36.10;;;;;;5030845;28;20213;-65
2021/08/21 01:48:51;;;;;;;5.67;5.17;;;23.10;36.10;;;;;;5034205;28;20192;-66
2021/08/21 01:51:16;;;;;;;4.73;4.33;;;23.10;36.20;;;;;;5034568;28;20183;-68
2021/08/21 01:53:42;;;;;;;7.10;5.60;;;23.10;36.30;;;;;;5034722;28;20622;-65
2021/08/21 01:56:08;;;;;;;5.57;5.17;;;23.20;36.60;;;;;;5034333;28;20227;-64
2021/08/21 01:58:35;;;;;;;5.70;5.23;;;23.10;36.40;;;;;;5034512;28;20235;-65
2021/08/21 02:01:03;;;;;;;5.80;4.97;;;23.20;36.60;;;;;;5034436;28;20408;-65
2021/08/21 02:03:30;;;;;;;4.60;4.30;;;23.10;36.40;;;;;;5034471;28;20419;-66
2021/08/21 02:05:56;;;;;;;6.30;5.90;;;23.10;36.40;;;;;;5034386;28;20488;-65
2021/08/21 02:08:21;;;;;;;5.40;4.90;;;23.10;36.30;;;;;;5034335;28;20459;-66
2021/08/21 02:10:47;;;;;;;5.87;5.30;;;23.10;36.40;;;;;;5034186;28;20188;-64
2021/08/21 02:13:12;;;;;;;5.50;5.00;;;23.10;36.30;;;;;;5034369;28;20176;-65
2021/08/21 02:15:38;;;;;;;5.90;5.40;;;23.10;36.30;;;;;;5034013;28;20216;-65
2021/08/21 02:18:03;;;;;;;5.13;4.80;;;23.10;36.30;;;;;;5034108;28;20224;-68
2021/08/21 02:20:29;;;;;;;5.40;5.00;;;23.10;36.30;;;;;;5034132;28;20230;-64
2021/08/21 02:22:55;;;;;;;5.77;5.37;;;23.10;36.30;;;;;;5034344;28;20181;-65
2021/08/21 02:25:20;;;;;;;5.60;5.20;;;23.10;36.20;;;;;;5033819;28;20689;-65
2021/08/21 02:27:57;;;;;;;6.47;5.97;;;23.10;36.30;;;;;;5034056;28;20230;-66
2021/08/21 02:30:22;;;;;;;5.33;4.93;;;23.10;36.30;;;;;;5033933;28;20172;-66
2021/08/21 02:32:48;;;;;;;6.10;5.60;;;23.10;36.30;;;;;;5033903;28;20403;-66
2021/08/21 02:35:14;;;;;;;5.33;4.93;;;23.10;36.30;;;;;;5033662;28;20256;-65
2021/08/21 02:37:39;;;;;;;5.97;5.47;;;23.10;36.20;;;;;;5032767;28;20254;-65
2021/08/21 02:40:05;;;;;;;5.80;5.30;;;23.10;36.30;;;;;;5033714;28;20643;-65
2021/08/21 02:42:31;;;;;;;5.90;5.50;;;23.10;36.30;;;;;;5033825;28;20643;-65
2021/08/21 02:44:57;;;;;;;6.30;5.70;;;23.10;36.30;;;;;;5033488;28;20454;-65
2021/08/21 02:47:22;;;;;;;5.13;4.63;;;23.10;36.30;;;;;;5033426;28;20455;-67
2021/08/21 02:49:48;;;;;;;5.50;5.10;;;23.10;36.30;;;;;;5033742;28;20677;-64
2021/08/21 02:52:13;;;;;;;5.60;5.10;;;23.10;36.30;;;;;;5033477;28;20180;-64
2021/08/21 02:54:39;;;;;;;6.60;6.00;;;23.10;37.00;;;;;;5033406;28;20172;-66
2021/08/21 02:57:04;;;;;;;6.47;5.70;;;23.10;36.30;;;;;;5033182;28;20200;-64
2021/08/21 02:59:30;;;;;;;6.40;5.80;;;23.10;36.30;;;;;;5032573;28;20176;-65
2021/08/21 03:01:55;;;;;;;6.60;6.17;;;23.10;36.40;;;;;;5033206;28;20176;-64
2021/08/21 03:04:21;;;;;;;5.47;5.00;;;23.10;36.30;;;;;;5033501;28;20702;-67
2021/08/21 03:06:46;;;;;;;5.50;5.00;;;23.10;36.30;;;;;;5032918;28;20200;-64
2021/08/21 03:09:12;;;;;;;5.80;5.13;;;23.10;36.40;;;;;;5033525;28;20178;-64
2021/08/21 03:11:37;;;;;;;5.50;5.10;;;23.10;36.40;;;;;;5033077;28;20644;-66
2021/08/21 03:14:03;;;;;;;6.03;5.63;;;23.10;36.40;;;;;;5033287;28;20180;-66
2021/08/21 03:16:28;;;;;;;6.07;5.67;;;23.10;36.40;;;;;;5032809;28;20180;-64
2021/08/21 03:18:54;;;;;;;5.90;5.10;;;23.10;36.40;;;;;;5033069;28;20192;-65
2021/08/21 03:21:20;;;;;;;5.83;5.33;;;23.10;36.70;;;;;;5032922;28;20298;-64
2021/08/21 03:23:45;;;;;;;5.97;5.43;;;23.10;36.40;;;;;;5033068;28;20208;-63
2021/08/21 03:26:12;;;;;;;6.53;6.03;;;23.10;36.40;;;;;;5032658;28;20168;-64
2021/08/21 03:28:38;;;;;;;5.83;5.30;;;23.10;36.50;;;;;;5032808;28;20220;-65
2021/08/21 03:31:04;;;;;;;5.77;5.27;;;23.10;36.50;;;;;;5032636;28;20412;-66
2021/08/21 03:33:29;;;;;;;5.37;4.97;;;23.10;36.50;;;;;;5032873;28;20705;-64
2021/08/21 03:35:55;;;;;;;5.50;5.10;;;23.10;36.50;;;;;;5032517;28;20218;-64
2021/08/21 03:38:20;;;;;;;6.30;5.80;;;23.10;36.60;;;;;;5032778;28;20569;-64
2021/08/21 03:40:46;;;;;;;5.80;5.30;;;23.10;36.70;;;;;;5032537;28;20242;-67
2021/08/21 03:43:11;;;;;;;5.53;5.00;;;23.10;36.80;;;;;;5032708;28;20187;-63
2021/08/21 03:45:40;;;;;;;5.40;5.00;;;23.10;36.80;;;;;;5032346;28;20183;-65
2021/08/21 03:48:07;;;;;;;6.70;6.20;;;23.10;36.70;;;;;;5032391;28;20246;-64
2021/08/21 03:50:32;;;;;;;5.50;5.10;;;23.10;36.70;;;;;;5032526;28;20427;-66
2021/08/21 03:52:58;;;;;;;5.80;5.40;;;23.10;36.60;;;;;;5032567;28;20462;-65
2021/08/21 03:55:23;;;;;;;6.30;5.70;;;23.10;36.60;;;;;;5032252;28;20219;-65
2021/08/21 03:57:49;;;;;;;6.47;6.00;;;23.10;36.60;;;;;;5032055;28;20223;-65
2021/08/21 04:00:15;;;;;;;6.30;5.70;;;23.10;36.60;;;;;;5032267;28;20204;-64
2021/08/21 04:02:41;;;;;;;6.07;5.67;;;23.10;36.60;;;;;;5032158;28;20173;-67
2021/08/21 04:05:07;;;;;;;6.30;5.80;;;23.10;36.60;;;;;;5032147;28;20414;-64
2021/08/21 04:07:32;;;;;;;6.10;5.60;;;23.10;36.60;;;;;;5031915;28;20290;-64
2021/08/21 04:09:58;;;;;;;5.77;5.27;;;23.10;36.50;;;;;;5032021;28;20450;-64
2021/08/21 04:12:23;;;;;;;5.53;5.00;;;23.10;36.50;;;;;;5031926;28;20173;-65
2021/08/21 04:14:49;;;;;;;5.57;5.10;;;23.10;36.50;;;;;;5031928;28;20172;-64
2021/08/21 04:17:14;;;;;;;5.30;4.90;;;23.10;36.40;;;;;;5032014;28;20197;-63
2021/08/21 04:19:40;;;;;;;5.60;4.83;;;23.10;36.50;;;;;;5032130;28;20173;-65
2021/08/21 04:22:05;;;;;;;5.13;4.80;;;23.10;36.50;;;;;;5031882;28;20195;-66
2021/08/21 04:24:31;;;;;;;5.10;4.73;;;23.10;36.50;;;;;;5031988;28;20180;-65
2021/08/21 04:26:56;;;;;;;4.60;4.20;;;23.10;36.50;;;;;;5031489;28;20337;-64
2021/08/21 04:29:22;;;;;;;5.40;5.10;;;23.10;36.60;;;;;;5031995;28;20172;-65
2021/08/21 04:31:48;;;;;;;6.33;5.27;;;23.10;36.50;;;;;;5031816;28;20532;-66
2021/08/21 04:34:13;;;;;;;4.70;4.30;;;23.10;36.50;;;;;;5031788;28;20263;-63
2021/08/21 04:36:39;;;;;;;5.17;4.77;;;23.10;36.40;;;;;;5031701;28;20177;-63
2021/08/21 04:39:05;;;;;;;5.67;5.27;;;23.20;36.50;;;;;;5031739;28;20570;-64
2021/08/21 04:41:30;;;;;;;5.67;5.27;;;23.20;36.50;;;;;;5031810;28;20172;-64
2021/08/21 04:43:56;;;;;;;4.83;4.53;;;23.20;36.50;;;;;;5031622;28;20230;-67
2021/08/21 04:46:21;;;;;;;5.53;5.13;;;23.20;36.50;;;;;;5031545;28;20176;-64
2021/08/21 04:48:47;;;;;;;6.30;5.80;;;23.20;36.50;;;;;;5031597;28;20204;-65
2021/08/21 04:51:13;;;;;;;5.70;5.30;;;23.20;36.50;;;;;;5031664;28;20172;-65
2021/08/21 04:53:38;;;;;;;5.53;5.13;;;23.20;36.60;;;;;;5031646;28;20636;-66
2021/08/21 04:56:05;;;;;;;5.93;5.30;;;23.20;36.50;;;;;;5031737;28;20172;-65
2021/08/21 04:58:31;;;;;;;6.80;5.67;;;23.20;36.30;;;;;;5031236;28;20679;-64
2021/08/21 05:00:56;;;;;;;6.00;5.50;;;23.20;36.20;;;;;;5029146;28;20442;-65
2021/08/21 05:03:22;;;;;;;5.63;5.23;;;23.10;36.10;;;;;;5011813;28;20275;-64
2021/08/21 05:05:47;;;;;;;6.90;6.30;;;23.10;36.10;;;;;;5011554;28;20188;-66
2021/08/21 05:08:15;;;;;;;8.57;6.50;;;23.20;36.20;;;;;;5011480;28;20220;-66
2021/08/21 05:10:40;;;;;;;6.47;5.97;;;23.10;36.10;;;;;;5011647;28;20540;-65
2021/08/21 05:13:05;;;;;;;17.63;6.53;;;23.10;36.10;;;;;;5010552;28;20502;-65
2021/08/21 05:15:33;;;;;;;8.17;7.47;;;23.10;36.10;;;;;;5011637;28;20185;-65
2021/08/21 05:17:59;;;;;;;8.63;5.70;;;23.10;36.10;;;;;;5011907;28;20289;-65
2021/08/21 05:20:30;;;;;;;6.40;5.90;;;23.10;36.00;;;;;;5011707;28;20412;-65
2021/08/21 05:25:31;;;;;;;5.97;5.47;;;23.10;36.00;;;;;;5014264;28;20419;-65
2021/08/21 05:27:58;;;;;;;6.80;6.10;;;23.10;36.00;;;;;;5015260;28;20817;-65
2021/08/21 05:30:27;;;;;;;6.03;5.60;;;23.10;35.90;;;;;;5015203;28;20419;-66
2021/08/21 05:32:54;;;;;;;6.83;6.30;;;23.10;35.90;;;;;;5015499;28;20408;-65
2021/08/21 05:35:19;;;;;;;6.57;6.03;;;23.10;35.70;;;;;;5015167;28;21004;-65
2021/08/21 05:37:45;;;;;;;6.70;6.10;;;23.00;35.70;;;;;;5015129;28;20436;-66
2021/08/21 05:40:11;;;;;;;5.90;5.40;;;23.10;35.70;;;;;;5015020;28;20632;-67
2021/08/21 05:42:36;;;;;;;6.30;5.70;;;23.00;35.70;;;;;;5015155;28;20240;-65
2021/08/21 05:45:02;;;;;;;6.67;5.80;;;23.00;35.70;;;;;;5014812;28;20408;-67
2021/08/21 05:47:28;;;;;;;6.53;6.03;;;23.00;35.70;;;;;;5014993;28;20215;-66
2021/08/21 05:49:54;;;;;;;6.40;5.80;;;23.00;35.70;;;;;;5014979;28;20169;-65
2021/08/21 05:52:19;;;;;;;6.17;5.70;;;23.00;35.70;;;;;;5014992;28;20185;-65
2021/08/21 05:54:45;;;;;;;5.90;5.50;;;23.00;35.60;;;;;;5014627;28;20507;-66
2021/08/21 05:57:10;;;;;;;5.63;5.23;;;23.00;35.70;;;;;;5014678;28;20204;-67
2021/08/21 05:59:35;;;;;;;6.57;5.97;;;23.00;35.70;;;;;;5014748;28;20640;-66
2021/08/21 06:02:01;;;;;;;6.70;6.20;;;22.90;35.60;;;;;;5014777;28;20188;-66
2021/08/21 06:04:27;;;;;;;5.80;5.20;;;23.00;35.80;;;;;;5014640;28;20173;-67
2021/08/21 06:06:52;;;;;;;6.37;5.80;;;23.00;35.80;;;;;;5014337;28;20201;-66
2021/08/21 06:09:20;;;;;;;6.83;6.23;;;23.00;35.90;;;;;;5014503;28;20177;-66
2021/08/21 06:11:46;;;;;;;8.33;5.77;;;23.00;35.90;;;;;;5014560;28;20749;-66
2021/08/21 06:14:11;;;;;;;7.40;6.03;;;23.00;36.00;;;;;;5014674;28;20436;-66
2021/08/21 06:16:37;;;;;;;8.07;7.00;;;22.90;36.00;;;;;;5014133;28;20416;-67
2021/08/21 06:19:02;;;;;;;8.43;7.00;;;23.00;36.20;;;;;;5014535;28;20197;-66
2021/08/21 06:21:28;;;;;;;7.43;6.80;;;23.00;36.30;;;;;;5014167;28;20181;-66
2021/08/21 06:23:53;;;;;;;7.53;5.77;;;23.00;36.50;;;;;;5014405;28;20226;-67
2021/08/21 06:26:19;;;;;;;6.53;5.93;;;23.00;36.30;;;;;;5013975;28;20178;-66
2021/08/21 06:28:44;;;;;;;8.50;6.10;;;23.00;36.40;;;;;;5014388;28;20209;-66
2021/08/21 06:31:10;;;;;;;6.17;5.57;;;23.00;36.50;;;;;;5014089;28;20670;-66
2021/08/21 06:33:36;;;;;;;6.60;6.10;;;23.00;36.40;;;;;;5014205;28;20166;-66
2021/08/21 06:36:01;;;;;;;6.37;5.77;;;23.00;36.40;;;;;;5013787;28;20173;-65
2021/08/21 06:38:27;;;;;;;6.70;6.10;;;23.00;36.20;;;;;;5014081;28;20194;-65
2021/08/21 06:40:52;;;;;;;7.03;6.33;;;23.00;36.10;;;;;;5013791;28;20648;-66
2021/08/21 06:43:18;;;;;;;6.50;5.90;;;23.00;35.90;;;;;;5014159;28;20687;-66
2021/08/21 06:45:43;;;;;;;7.67;6.90;;;23.00;35.80;;;;;;5013645;28;20660;-66
2021/08/21 06:48:09;;;;;;;7.20;6.50;;;23.00;35.70;;;;;;5013707;28;20215;-66
2021/08/21 06:50:36;;;;;;;6.03;5.43;;;23.00;35.60;;;;;;5013590;28;20181;-67
2021/08/21 06:53:03;;;;;;;6.53;5.93;;;23.00;35.60;;;;;;5013892;28;20165;-66
2021/08/21 06:55:29;;;;;;;7.57;6.87;;;23.00;35.50;;;;;;5013251;28;20409;-67
2021/08/21 06:57:55;;;;;;;8.10;6.63;;;23.00;35.50;;;;;;5013548;28;20550;-67
2021/08/21 07:00:20;;;;;;;7.63;7.00;;;23.00;35.60;;;;;;5013489;28;20547;-68
2021/08/21 07:02:46;;;;;;;7.20;6.53;;;23.00;35.50;;;;;;5013499;28;20205;-66
2021/08/21 07:05:11;;;;;;;7.30;6.73;;;23.00;35.60;;;;;;5013277;28;20174;-66
2021/08/21 07:07:37;;;;;;;6.13;5.63;;;23.00;35.50;;;;;;5013164;28;20209;-67
2021/08/21 07:10:04;;;;;;;8.10;7.40;;;23.00;35.50;;;;;;5013537;28;20178;-67
2021/08/21 07:12:30;;;;;;;8.20;7.40;;;23.00;35.40;;;;;;5013236;28;20224;-65
2021/08/21 07:14:55;;;;;;;7.47;6.77;;;23.00;35.40;;;;;;5013327;28;20926;-65
2021/08/21 07:17:20;;;;;;;7.47;6.83;;;23.00;35.60;;;;;;5013163;28;20676;-67
2021/08/21 07:19:46;;;;;;;8.47;6.57;;;23.00;35.60;;;;;;5013359;28;20603;-65
2021/08/21 07:22:12;;;;;;;7.50;6.80;;;23.00;35.60;;;;;;5013009;28;20184;-66
2021/08/21 07:24:37;;;;;;;7.10;6.00;;;23.00;35.60;;;;;;5013202;28;20173;-68
2021/08/21 07:27:03;;;;;;;7.03;6.43;;;23.00;35.60;;;;;;5012773;28;20220;-65
2021/08/21 07:29:29;;;;;;;7.47;6.77;;;23.00;35.50;;;;;;5013222;28;20178;-66
2021/08/21 07:31:54;;;;;;;7.40;6.70;;;23.00;35.50;;;;;;5013056;28;20177;-66
2021/08/21 07:34:20;;;;;;;7.97;6.10;;;23.00;35.50;;;;;;5013126;28;20197;-66
2021/08/21 07:36:45;;;;;;;6.77;6.23;;;22.90;35.50;;;;;;5012547;28;20200;-67
2021/08/21 07:39:11;;;;;;;6.13;5.63;;;23.00;35.50;;;;;;5012999;28;20170;-66
2021/08/21 07:41:36;;;;;;;6.03;5.63;;;23.00;35.60;;;;;;5012803;28;20190;-65
2021/08/21 07:44:03;;;;;;;6.90;6.40;;;23.00;35.50;;;;;;5007357;28;20332;-69
2021/08/21 07:46:30;;;;;;;6.90;6.20;;;23.00;35.50;;;;;;5011190;28;20272;-67
2021/08/21 07:48:56;;;;;;;7.23;6.53;;;23.00;35.60;;;;;;5012413;28;20448;-66
2021/08/21 07:51:21;;;;;;;6.70;5.87;;;23.00;35.60;;;;;;5005729;28;20424;-70
2021/08/21 07:53:47;;;;;;;6.50;6.00;;;23.00;35.60;;;;;;4998022;28;20229;-67
2021/08/21 07:56:12;;;;;;;7.13;6.60;;;23.00;35.60;;;;;;5036277;28;20307;-66
2021/08/21 07:58:38;;;;;;;6.10;5.70;;;23.10;35.50;;;;;;5037546;28;20406;-65
2021/08/21 08:01:03;;;;;;;7.97;5.60;;;23.10;35.40;;;;;;5037577;28;20221;-66
2021/08/21 08:03:29;;;;;;;8.83;5.87;;;23.10;35.60;;;;;;5037962;28;20224;-66
2021/08/21 08:05:54;;;;;;;12.90;6.07;;;23.10;35.60;;;;;;5037571;28;20215;-65
2021/08/21 08:08:20;;;;;;;6.27;5.13;;;23.10;35.50;;;;;;5035948;28;20289;-67
2021/08/21 08:10:46;;;;;;;10.03;5.60;;;23.20;35.50;;;;;;5037602;28;20752;-66
2021/08/21 08:13:12;;;;;;;7.33;5.47;;;23.20;35.50;;;;;;5037459;28;20663;-66
2021/08/21 08:15:38;;;;;;;5.60;4.80;;;23.20;35.50;;;;;;5037103;28;20524;-67
2021/08/21 08:18:03;;;;;;;9.57;6.60;;;23.30;35.50;;;;;;5036763;28;20231;-63
2021/08/21 08:20:30;;;;;;;7.70;5.00;;;23.30;35.50;;;;;;5037161;28;20763;-63
2021/08/21 08:22:56;;;;;;;9.33;5.93;;;23.40;35.60;;;;;;5037598;28;20251;-62
2021/08/21 08:25:22;;;;;;;13.20;6.00;;;23.40;35.70;;;;;;5040895;28;20891;-63
2021/08/21 08:27:47;;;;;;;12.50;5.90;;;23.40;36.00;;;;;;5036622;28;20557;-62
2021/08/21 08:30:14;;;;;;;7.17;5.80;;;23.40;36.10;;;;;;5037306;28;20541;-63
2021/08/21 08:32:42;;;;;;;9.20;5.27;;;23.50;36.10;;;;;;5037574;28;20277;-63
2021/08/21 08:35:08;;;;;;;5.83;4.60;;;23.50;36.10;;;;;;5036228;28;20454;-63
2021/08/21 08:37:33;;;;;;;9.03;5.00;;;23.50;36.00;;;;;;5037330;28;20497;-63
2021/08/21 08:39:59;;;;;;;5.00;4.60;;;23.50;36.10;;;;;;5037097;28;20474;-63
2021/08/21 08:42:25;;;;;;;6.83;5.53;;;23.50;36.10;;;;;;5037073;28;20242;-62
2021/08/21 08:44:51;;;;;;;5.20;4.80;;;23.50;36.10;;;;;;5036305;28;20247;-63
2021/08/21 08:47:18;;;;;;;5.30;4.80;;;23.50;36.20;;;;;;5039507;28;20501;-62
2021/08/21 08:49:46;;;;;;;5.00;4.60;;;23.50;36.20;;;;;;5039857;28;20255;-63
2021/08/21 08:52:12;;;;;;;6.67;4.80;;;23.50;36.20;;;;;;5039347;28;20461;-63
2021/08/21 08:54:37;;;;;;;6.80;4.67;;;23.50;36.20;;;;;;5039975;28;20959;-64
2021/08/21 08:57:03;;;;;;;4.90;4.40;;;23.60;36.20;;;;;;5039624;28;21036;-63
2021/08/21 08:59:30;;;;;;;4.87;4.47;;;23.60;36.10;;;;;;5009120;28;20570;-64
2021/08/21 09:01:56;;;;;;;6.27;5.77;;;23.60;36.10;;;;;;5004240;28;20431;-63
2021/08/21 09:04:26;;;;;;;5.63;5.20;;;23.60;36.10;;;;;;5004273;28;20444;-67
2021/08/21 09:06:53;;;;;;;5.60;5.10;;;23.60;36.10;;;;;;5003946;28;20225;-64
2021/08/21 09:09:20;;;;;;;5.47;5.07;;;23.60;36.00;;;;;;5004517;28;20808;-63
2021/08/21 09:11:53;;;;;;;5.03;4.73;;;23.60;36.00;;;;;;5003938;28;20531;-63
2021/08/21 09:14:29;;;;;;;5.83;5.20;;;23.60;36.00;;;;;;5003893;28;20554;-62
2021/08/21 09:17:18;;;;;;;5.20;4.70;;;23.60;35.90;;;;;;5020655;28;20600;-66
2021/08/21 09:19:44;;;;;;;5.33;4.90;;;23.60;35.80;;;;;;5022918;28;20804;-62
2021/08/21 09:22:11;;;;;;;6.10;5.60;;;23.60;35.80;;;;;;5024206;28;20446;-66
2021/08/21 09:24:39;;;;;;;6.10;5.50;;;23.70;36.70;;;;;;5023645;28;20453;-64
2021/08/21 09:27:18;;;;;;;5.20;4.90;;;23.60;35.90;;;;;;5023534;28;20475;-66
2021/08/21 09:29:44;;;;;;;5.60;5.10;;;23.70;36.00;;;;;;5022546;28;20538;-64
2021/08/21 09:32:11;;;;;;;5.57;5.07;;;23.70;36.00;;;;;;5023159;28;20538;-64
2021/08/21 09:34:38;;;;;;;6.13;5.53;;;23.70;36.00;;;;;;5023540;28;20232;-64
2021/08/21 09:37:07;;;;;;;6.37;5.90;;;23.70;36.10;;;;;;5021683;28;20455;-66
2021/08/21 09:39:38;;;;;;;5.70;5.30;;;23.70;36.10;;;;;;5022773;28;20439;-64
2021/08/21 09:42:07;;;;;;;5.40;4.90;;;23.70;36.10;;;;;;5022327;28;20450;-64
2021/08/21 09:44:38;;;;;;;5.77;5.37;;;23.70;36.10;;;;;;5022762;28;20443;-66
2021/08/21 09:47:12;;;;;;;6.10;5.60;;;23.70;36.10;;;;;;5022291;28;21011;-63
2021/08/21 09:49:38;;;;;;;5.10;4.70;;;23.70;36.10;;;;;;5023293;28;20665;-63
2021/08/21 09:52:11;;;;;;;5.53;5.00;;;23.80;36.10;;;;;;5021652;28;20459;-63
2021/08/21 09:54:38;;;;;;;5.90;5.50;;;23.80;36.20;;;;;;5019441;28;20750;-63
2021/08/21 09:57:04;;;;;;;5.37;4.87;;;23.80;36.20;;;;;;5019692;28;20478;-67
2021/08/21 09:59:41;;;;;;;6.03;5.60;;;23.80;36.20;;;;;;5018530;28;20764;-67
2021/08/21 10:02:10;;;;;;;5.67;5.27;;;23.80;36.30;;;;;;5014317;28;20308;-64
2021/08/21 10:04:38;;;;;;;9.23;6.80;;;23.80;36.20;;;;;;5000027;28;20478;-64
2021/08/21 10:07:05;;;;;;;5.20;4.80;;;23.80;36.10;;;;;;4999556;28;20476;-66
2021/08/21 10:09:32;;;;;;;5.70;5.20;;;23.80;36.20;;;;;;5005276;28;20475;-65
2021/08/21 10:11:58;;;;;;;6.33;5.93;;;23.80;36.20;;;;;;5002351;28;21209;-64
2021/08/21 10:14:24;;;;;;;6.20;5.70;;;23.80;36.20;;;;;;5003027;28;20483;-63
2021/08/21 10:16:50;;;;;;;5.97;5.47;;;23.90;36.30;;;;;;5002752;28;20951;-63
2021/08/21 10:19:18;;;;;;;6.53;6.07;;;23.90;36.30;;;;;;5001342;28;20464;-64
2021/08/21 10:22:10;;;;;;;5.53;5.13;;;23.90;36.30;;;;;;5001604;28;20699;-66
2021/08/21 10:24:38;;;;;;;6.93;6.43;;;23.90;36.30;;;;;;5000897;28;20440;-65
2021/08/21 10:27:28;;;;;;;6.13;5.73;;;23.90;37.00;;;;;;5002538;28;20468;-63
2021/08/21 10:30:08;;;;;;;6.27;5.83;;;23.90;36.40;;;;;;5001735;28;20436;-66
2021/08/21 10:32:36;;;;;;;6.33;5.83;;;23.90;36.40;;;;;;5009413;28;20838;-63
2021/08/21 10:35:04;;;;;;;6.37;5.97;;;23.90;36.50;;;;;;5008615;28;20464;-64
2021/08/21 10:37:36;;;;;;;6.00;5.40;;;23.90;36.50;;;;;;5008243;28;20448;-65
2021/08/21 10:40:27;;;;;;;7.30;6.60;;;23.90;36.60;;;;;;5008587;28;20563;-64
2021/08/21 10:42:55;;;;;;;5.87;5.50;;;24.00;36.70;;;;;;5010478;28;20440;-64
2021/08/21 10:45:39;;;;;;;6.40;5.90;;;24.00;36.60;;;;;;5008027;28;20467;-64
2021/08/21 10:48:06;;;;;;;6.30;5.90;;;24.00;36.60;;;;;;5010178;28;20455;-63
2021/08/21 10:50:36;;;;;;;6.70;6.20;;;24.00;36.60;;;;;;5012080;28;20463;-63
2021/08/21 10:53:05;;;;;;;7.33;6.63;;;24.00;36.60;;;;;;5010150;28;20447;-64
2021/08/21 10:55:34;;;;;;;6.53;6.13;;;24.00;36.60;;;;;;5009405;28;20976;-63
2021/08/21 10:58:01;;;;;;;7.07;6.43;;;24.00;36.50;;;;;;5006085;28;20553;-64
2021/08/21 11:00:38;;;;;;;7.30;6.70;;;24.00;36.60;;;;;;5009639;28;20447;-66
2021/08/21 11:03:04;;;;;;;7.57;6.90;;;24.00;36.60;;;;;;5010591;28;20447;-64
2021/08/21 11:06:09;;;;;;;8.10;7.60;;;24.00;36.60;;;;;;5008814;28;20444;-65
2021/08/21 11:08:37;;;;;;;7.27;6.67;;;24.10;36.70;;;;;;4987369;28;20464;-63
2021/08/21 11:11:14;;;;;;;8.57;7.97;;;24.10;36.60;;;;;;4986420;28;20823;-64
2021/08/21 11:14:07;;;;;;;7.37;6.87;;;24.10;36.60;;;;;;5007202;28;20450;-66
2021/08/21 11:16:54;;;;;;;7.53;6.97;;;24.10;36.70;;;;;;5018719;28;20447;-64
2021/08/21 11:19:25;;;;;;;7.43;6.93;;;24.10;36.60;;;;;;5011292;28;20479;-65
2021/08/21 11:21:51;;;;;;;7.60;7.00;;;24.10;36.60;;;;;;5019310;28;20448;-66
2021/08/21 11:24:25;;;;;;;7.47;6.93;;;24.10;36.60;;;;;;5018586;28;20451;-64
2021/08/21 11:27:12;;;;;;;8.67;7.97;;;24.10;36.60;;;;;;5018170;28;20542;-64
2021/08/21 11:30:09;;;;;;;8.63;8.00;;;24.10;36.60;;;;;;5018636;28;20443;-64
2021/08/21 11:32:42;;;;;;;7.77;7.17;;;24.10;36.60;;;;;;5007133;28;20526;-65
2021/08/21 11:35:08;;;;;;;8.77;8.10;;;24.10;36.50;;;;;;5014025;28;20455;-64
2021/08/21 11:37:34;;;;;;;8.00;7.30;;;24.10;36.50;;;;;;5018467;28;20496;-63
2021/08/21 11:40:00;;;;;;;8.40;7.80;;;24.10;36.50;;;;;;5012584;28;20213;-67
2021/08/21 11:43:04;;;;;;;7.93;7.33;;;24.10;36.40;;;;;;4999833;28;20455;-64
2021/08/21 11:45:31;;;;;;;7.60;7.07;;;24.10;36.40;;;;;;5000053;28;20440;-64
2021/08/21 11:47:57;;;;;;;8.27;7.57;;;24.10;36.30;;;;;;5000727;28;20464;-67
2021/08/21 11:50:29;;;;;;;7.47;6.93;;;24.10;36.30;;;;;;5000310;28;20460;-64
2021/08/21 11:52:57;;;;;;;8.10;7.50;;;24.10;36.30;;;;;;5001164;28;20613;-65
2021/08/21 11:55:24;;;;;;;7.37;6.63;;;24.10;36.30;;;;;;5012064;28;20494;-63
2021/08/21 11:57:51;;;;;;;7.00;6.50;;;24.10;36.30;;;;;;5020145;28;20939;-64
2021/08/21 12:00:25;;;;;;;7.20;6.70;;;24.10;36.30;;;;;;5021790;28;20462;-63
2021/08/21 12:02:57;;;;;;;6.90;6.40;;;24.10;36.30;;;;;;5020458;28;20450;-65
2021/08/21 12:05:29;;;;;;;7.50;6.90;;;24.10;36.20;;;;;;5020008;28;20477;-63
2021/08/21 12:07:55;;;;;;;6.67;6.27;;;24.10;36.20;;;;;;5020355;28;20566;-63
2021/08/21 12:10:21;;;;;;;7.77;6.90;;;24.10;36.20;;;;;;5020517;28;20546;-63
2021/08/21 12:12:54;;;;;;;8.00;7.27;;;24.10;36.20;;;;;;5019551;28;20686;-64
2021/08/21 12:15:25;;;;;;;6.97;6.47;;;24.10;36.20;;;;;;5020264;28;20230;-64
2021/08/21 12:17:50;;;;;;;7.03;6.53;;;24.10;36.20;;;;;;5019890;28;20442;-65
2021/08/21 12:20:16;;;;;;;7.17;6.57;;;24.10;36.20;;;;;;5020066;28;20455;-66
2021/08/21 12:22:42;;;;;;;7.03;6.53;;;24.10;36.20;;;;;;5020434;28;20599;-65
2021/08/21 12:25:08;;;;;;;8.43;7.60;;;24.10;36.20;;;;;;5019328;28;20315;-64
2021/08/21 12:27:33;;;;;;;7.40;6.90;;;24.10;36.20;;;;;;5019952;28;20639;-63
2021/08/21 12:30:07;;;;;;;7.40;6.80;;;24.10;36.20;;;;;;5020643;28;20224;-65
2021/08/21 12:32:32;;;;;;;7.23;6.73;;;24.10;36.20;;;;;;5020061;28;20756;-66
2021/08/21 12:35:18;;;;;;;7.60;7.00;;;24.10;36.20;;;;;;5019648;28;20454;-64
2021/08/21 12:38:00;;;;;;;6.70;6.20;;;24.10;36.20;;;;;;5019770;28;20292;-63
2021/08/21 12:40:26;;;;;;;7.27;6.67;;;24.10;36.10;;;;;;5019298;28;20450;-63
2021/08/21 12:43:01;;;;;;;7.77;7.17;;;24.10;36.10;;;;;;5019254;28;20455;-64
2021/08/21 12:45:27;;;;;;;6.50;6.00;;;24.20;36.20;;;;;;5019447;28;20224;-63
2021/08/21 12:47:53;;;;;;;7.23;6.63;;;24.10;36.00;;;;;;5020154;28;20564;-65
2021/08/21 12:50:20;;;;;;;6.97;6.47;;;24.10;36.00;;;;;;5019966;28;20626;-67